sensor_id;sensor_type;location;lat;lon;timestamp;P1;durP1;ratioP1;P2;durP2;ratioP2
64826;SDS011;51265;53.972;12.286;2023-03-09T00:01:20;12.18;;;6.68;;
64826;SDS011;51265;53.972;12.286;2023-03-09T00:03:48;12.68;;;6.30;;
64826;SDS011;51265;53.972;12.286;2023-03-09T00:06:14;11.13;;;6.55;;
64826;SDS011;51265;53.972;12.286;2023-03-09T00:08:41;14.68;;;6.45;;
64826;SDS011;51265;53.972;12.286;2023-03-09T00:11:07;16.85;;;7.28;;
64826;SDS011;51265;53.972;12.286;2023-03-09T00:13:34;13.55;;;6.95;;
64826;SDS011;51265;53.972;12.286;2023-03-09T00:16:08;11.15;;;6.05;;
64826;SDS011;51265;53.972;12.286;2023-03-09T00:18:36;12.00;;;6.78;;
64826;SDS011;51265;53.972;12.286;2023-03-09T00:21:03;16.77;;;6.95;;
64826;SDS011;51265;53.972;12.286;2023-03-09T00:23:29;15.15;;;7.10;;
64826;SDS011;51265;53.972;12.286;2023-03-09T00:25:55;12.82;;;6.65;;
64826;SDS011;51265;53.972;12.286;2023-03-09T00:28:28;14.48;;;6.80;;
64826;SDS011;51265;53.972;12.286;2023-03-09T00:30:58;14.95;;;7.03;;
64826;SDS011;51265;53.972;12.286;2023-03-09T00:33:31;14.35;;;7.07;;
64826;SDS011;51265;53.972;12.286;2023-03-09T00:35:59;12.77;;;6.68;;
64826;SDS011;51265;53.972;12.286;2023-03-09T00:38:27;14.15;;;6.80;;
64826;SDS011;51265;53.972;12.286;2023-03-09T00:40:53;12.75;;;6.75;;
64826;SDS011;51265;53.972;12.286;2023-03-09T00:43:20;13.00;;;6.35;;
64826;SDS011;51265;53.972;12.286;2023-03-09T00:45:46;12.02;;;6.35;;
64826;SDS011;51265;53.972;12.286;2023-03-09T00:48:12;14.63;;;6.82;;
64826;SDS011;51265;53.972;12.286;2023-03-09T00:50:39;13.07;;;7.07;;
64826;SDS011;51265;53.972;12.286;2023-03-09T00:53:05;13.32;;;6.63;;
64826;SDS011;51265;53.972;12.286;2023-03-09T00:55:31;14.10;;;6.97;;
64826;SDS011;51265;53.972;12.286;2023-03-09T00:57:57;14.65;;;6.35;;
64826;SDS011;51265;53.972;12.286;2023-03-09T01:00:24;14.68;;;7.03;;
64826;SDS011;51265;53.972;12.286;2023-03-09T01:02:50;12.70;;;6.18;;
64826;SDS011;51265;53.972;12.286;2023-03-09T01:05:18;12.93;;;6.35;;
64826;SDS011;51265;53.972;12.286;2023-03-09T01:07:44;13.40;;;6.40;;
64826;SDS011;51265;53.972;12.286;2023-03-09T01:10:11;15.15;;;6.45;;
64826;SDS011;51265;53.972;12.286;2023-03-09T01:12:37;12.93;;;6.10;;
64826;SDS011;51265;53.972;12.286;2023-03-09T01:15:05;14.15;;;7.50;;
64826;SDS011;51265;53.972;12.286;2023-03-09T01:17:31;14.85;;;7.22;;
64826;SDS011;51265;53.972;12.286;2023-03-09T01:19:58;13.38;;;6.60;;
64826;SDS011;51265;53.972;12.286;2023-03-09T01:22:24;13.98;;;6.70;;
64826;SDS011;51265;53.972;12.286;2023-03-09T01:24:50;14.23;;;6.90;;
64826;SDS011;51265;53.972;12.286;2023-03-09T01:27:16;14.52;;;7.22;;
64826;SDS011;51265;53.972;12.286;2023-03-09T01:29:43;13.02;;;6.80;;
64826;SDS011;51265;53.972;12.286;2023-03-09T01:32:09;12.27;;;6.88;;
64826;SDS011;51265;53.972;12.286;2023-03-09T01:34:36;14.85;;;7.45;;
64826;SDS011;51265;53.972;12.286;2023-03-09T01:37:04;15.57;;;6.50;;
64826;SDS011;51265;53.972;12.286;2023-03-09T01:39:30;15.52;;;7.55;;
64826;SDS011;51265;53.972;12.286;2023-03-09T01:41:57;15.48;;;7.40;;
64826;SDS011;51265;53.972;12.286;2023-03-09T01:44:23;18.73;;;7.60;;
64826;SDS011;51265;53.972;12.286;2023-03-09T01:46:54;14.88;;;7.50;;
64826;SDS011;51265;53.972;12.286;2023-03-09T01:57:04;17.58;;;7.50;;
64826;SDS011;51265;53.972;12.286;2023-03-09T01:59:35;14.38;;;7.15;;
64826;SDS011;51265;53.972;12.286;2023-03-09T02:02:03;15.77;;;7.47;;
64826;SDS011;51265;53.972;12.286;2023-03-09T02:04:34;15.77;;;7.63;;
64826;SDS011;51265;53.972;12.286;2023-03-09T02:07:05;18.08;;;9.30;;
64826;SDS011;51265;53.972;12.286;2023-03-09T02:09:37;17.58;;;8.10;;
64826;SDS011;51265;53.972;12.286;2023-03-09T02:12:10;21.77;;;7.53;;
64826;SDS011;51265;53.972;12.286;2023-03-09T02:14:40;15.48;;;7.45;;
64826;SDS011;51265;53.972;12.286;2023-03-09T02:17:09;14.68;;;7.32;;
64826;SDS011;51265;53.972;12.286;2023-03-09T02:19:48;17.00;;;8.05;;
64826;SDS011;51265;53.972;12.286;2023-03-09T02:22:20;14.80;;;7.45;;
64826;SDS011;51265;53.972;12.286;2023-03-09T02:24:54;15.82;;;7.63;;
64826;SDS011;51265;53.972;12.286;2023-03-09T02:27:22;14.23;;;7.35;;
64826;SDS011;51265;53.972;12.286;2023-03-09T02:29:51;15.90;;;7.82;;
64826;SDS011;51265;53.972;12.286;2023-03-09T02:32:19;15.05;;;7.10;;
64826;SDS011;51265;53.972;12.286;2023-03-09T02:34:46;17.48;;;7.55;;
64826;SDS011;51265;53.972;12.286;2023-03-09T02:37:23;14.57;;;7.25;;
64826;SDS011;51265;53.972;12.286;2023-03-09T02:39:50;16.17;;;7.35;;
64826;SDS011;51265;53.972;12.286;2023-03-09T02:42:21;15.40;;;7.28;;
64826;SDS011;51265;53.972;12.286;2023-03-09T02:44:48;15.60;;;7.82;;
64826;SDS011;51265;53.972;12.286;2023-03-09T02:47:17;16.02;;;7.72;;
64826;SDS011;51265;53.972;12.286;2023-03-09T02:49:46;20.67;;;7.38;;
64826;SDS011;51265;53.972;12.286;2023-03-09T02:52:12;16.83;;;8.13;;
64826;SDS011;51265;53.972;12.286;2023-03-09T02:54:40;14.40;;;7.03;;
64826;SDS011;51265;53.972;12.286;2023-03-09T02:57:06;18.92;;;7.47;;
64826;SDS011;51265;53.972;12.286;2023-03-09T02:59:33;17.33;;;8.05;;
64826;SDS011;51265;53.972;12.286;2023-03-09T03:01:59;15.90;;;7.45;;
64826;SDS011;51265;53.972;12.286;2023-03-09T03:04:25;17.70;;;7.55;;
64826;SDS011;51265;53.972;12.286;2023-03-09T03:06:53;15.70;;;7.18;;
64826;SDS011;51265;53.972;12.286;2023-03-09T03:09:20;18.30;;;7.13;;
64826;SDS011;51265;53.972;12.286;2023-03-09T03:11:46;17.83;;;7.07;;
64826;SDS011;51265;53.972;12.286;2023-03-09T03:14:12;17.25;;;7.82;;
64826;SDS011;51265;53.972;12.286;2023-03-09T03:16:38;16.25;;;7.57;;
64826;SDS011;51265;53.972;12.286;2023-03-09T03:19:05;15.88;;;7.47;;
64826;SDS011;51265;53.972;12.286;2023-03-09T03:21:35;18.88;;;7.68;;
64826;SDS011;51265;53.972;12.286;2023-03-09T03:24:02;20.10;;;8.32;;
64826;SDS011;51265;53.972;12.286;2023-03-09T03:26:31;18.35;;;7.38;;
64826;SDS011;51265;53.972;12.286;2023-03-09T03:29:03;13.20;;;7.03;;
64826;SDS011;51265;53.972;12.286;2023-03-09T03:31:30;18.02;;;8.15;;
64826;SDS011;51265;53.972;12.286;2023-03-09T03:33:58;16.58;;;7.60;;
64826;SDS011;51265;53.972;12.286;2023-03-09T03:36:26;18.00;;;8.18;;
64826;SDS011;51265;53.972;12.286;2023-03-09T03:38:53;13.60;;;6.93;;
64826;SDS011;51265;53.972;12.286;2023-03-09T03:41:19;12.80;;;7.05;;
64826;SDS011;51265;53.972;12.286;2023-03-09T03:43:49;15.77;;;7.60;;
64826;SDS011;51265;53.972;12.286;2023-03-09T03:46:15;15.10;;;7.25;;
64826;SDS011;51265;53.972;12.286;2023-03-09T03:48:43;14.05;;;7.13;;
64826;SDS011;51265;53.972;12.286;2023-03-09T03:51:11;15.60;;;6.95;;
64826;SDS011;51265;53.972;12.286;2023-03-09T03:53:40;13.77;;;7.28;;
64826;SDS011;51265;53.972;12.286;2023-03-09T03:56:07;16.88;;;7.47;;
64826;SDS011;51265;53.972;12.286;2023-03-09T03:58:51;12.57;;;6.78;;
64826;SDS011;51265;53.972;12.286;2023-03-09T04:01:19;14.52;;;6.97;;
64826;SDS011;51265;53.972;12.286;2023-03-09T04:03:48;14.60;;;7.38;;
64826;SDS011;51265;53.972;12.286;2023-03-09T04:06:15;15.77;;;7.15;;
64826;SDS011;51265;53.972;12.286;2023-03-09T04:08:51;12.93;;;6.80;;
64826;SDS011;51265;53.972;12.286;2023-03-09T04:11:17;14.27;;;6.43;;
64826;SDS011;51265;53.972;12.286;2023-03-09T04:13:46;13.75;;;6.63;;
64826;SDS011;51265;53.972;12.286;2023-03-09T04:16:15;15.32;;;7.40;;
64826;SDS011;51265;53.972;12.286;2023-03-09T04:18:42;14.23;;;6.78;;
64826;SDS011;51265;53.972;12.286;2023-03-09T04:21:08;14.05;;;6.63;;
64826;SDS011;51265;53.972;12.286;2023-03-09T04:23:35;15.90;;;7.55;;
64826;SDS011;51265;53.972;12.286;2023-03-09T04:26:03;14.48;;;7.18;;
64826;SDS011;51265;53.972;12.286;2023-03-09T04:28:41;14.02;;;6.70;;
64826;SDS011;51265;53.972;12.286;2023-03-09T04:31:11;14.90;;;6.95;;
64826;SDS011;51265;53.972;12.286;2023-03-09T04:33:38;14.15;;;6.63;;
64826;SDS011;51265;53.972;12.286;2023-03-09T04:36:09;12.40;;;6.25;;
64826;SDS011;51265;53.972;12.286;2023-03-09T04:38:37;16.75;;;7.35;;
64826;SDS011;51265;53.972;12.286;2023-03-09T04:41:03;11.90;;;6.47;;
64826;SDS011;51265;53.972;12.286;2023-03-09T04:43:30;14.68;;;6.82;;
64826;SDS011;51265;53.972;12.286;2023-03-09T04:45:56;14.00;;;6.90;;
64826;SDS011;51265;53.972;12.286;2023-03-09T04:48:23;14.40;;;6.80;;
64826;SDS011;51265;53.972;12.286;2023-03-09T04:50:50;15.88;;;7.03;;
64826;SDS011;51265;53.972;12.286;2023-03-09T04:53:16;16.30;;;7.40;;
64826;SDS011;51265;53.972;12.286;2023-03-09T04:55:45;13.82;;;6.50;;
64826;SDS011;51265;53.972;12.286;2023-03-09T04:58:13;12.52;;;6.40;;
64826;SDS011;51265;53.972;12.286;2023-03-09T05:00:40;16.08;;;6.80;;
64826;SDS011;51265;53.972;12.286;2023-03-09T05:03:08;13.45;;;6.55;;
64826;SDS011;51265;53.972;12.286;2023-03-09T05:05:40;17.73;;;6.97;;
64826;SDS011;51265;53.972;12.286;2023-03-09T05:08:06;16.08;;;6.68;;
64826;SDS011;51265;53.972;12.286;2023-03-09T05:10:34;14.65;;;7.15;;
64826;SDS011;51265;53.972;12.286;2023-03-09T05:13:00;15.25;;;6.85;;
64826;SDS011;51265;53.972;12.286;2023-03-09T05:15:28;23.58;;;11.32;;
64826;SDS011;51265;53.972;12.286;2023-03-09T05:17:55;35.95;;;17.27;;
64826;SDS011;51265;53.972;12.286;2023-03-09T05:20:23;26.77;;;12.25;;
64826;SDS011;51265;53.972;12.286;2023-03-09T05:22:57;19.42;;;9.07;;
64826;SDS011;51265;53.972;12.286;2023-03-09T05:25:24;18.95;;;8.13;;
64826;SDS011;51265;53.972;12.286;2023-03-09T05:27:51;17.08;;;7.78;;
64826;SDS011;51265;53.972;12.286;2023-03-09T05:30:17;13.35;;;6.80;;
64826;SDS011;51265;53.972;12.286;2023-03-09T05:32:48;16.25;;;6.95;;
64826;SDS011;51265;53.972;12.286;2023-03-09T05:35:20;13.57;;;6.60;;
64826;SDS011;51265;53.972;12.286;2023-03-09T05:37:47;12.82;;;6.35;;
64826;SDS011;51265;53.972;12.286;2023-03-09T05:40:17;15.65;;;7.72;;
64826;SDS011;51265;53.972;12.286;2023-03-09T05:42:47;12.68;;;6.63;;
64826;SDS011;51265;53.972;12.286;2023-03-09T05:45:14;16.17;;;6.53;;
64826;SDS011;51265;53.972;12.286;2023-03-09T05:47:40;11.68;;;5.97;;
64826;SDS011;51265;53.972;12.286;2023-03-09T05:50:07;12.20;;;6.47;;
64826;SDS011;51265;53.972;12.286;2023-03-09T05:52:34;13.32;;;6.53;;
64826;SDS011;51265;53.972;12.286;2023-03-09T05:55:01;12.15;;;7.03;;
64826;SDS011;51265;53.972;12.286;2023-03-09T05:57:29;18.58;;;9.23;;
64826;SDS011;51265;53.972;12.286;2023-03-09T05:59:55;55.55;;;27.60;;
64826;SDS011;51265;53.972;12.286;2023-03-09T06:02:21;47.60;;;22.65;;
64826;SDS011;51265;53.972;12.286;2023-03-09T06:04:51;21.73;;;10.77;;
64826;SDS011;51265;53.972;12.286;2023-03-09T06:07:18;19.70;;;9.75;;
64826;SDS011;51265;53.972;12.286;2023-03-09T06:09:47;14.93;;;7.38;;
64826;SDS011;51265;53.972;12.286;2023-03-09T06:12:19;14.43;;;7.65;;
64826;SDS011;51265;53.972;12.286;2023-03-09T06:14:49;14.27;;;6.30;;
64826;SDS011;51265;53.972;12.286;2023-03-09T06:17:18;14.48;;;6.43;;
64826;SDS011;51265;53.972;12.286;2023-03-09T06:19:45;12.60;;;6.20;;
64826;SDS011;51265;53.972;12.286;2023-03-09T06:22:11;14.40;;;6.60;;
64826;SDS011;51265;53.972;12.286;2023-03-09T06:24:39;14.98;;;6.90;;
64826;SDS011;51265;53.972;12.286;2023-03-09T06:27:06;11.77;;;6.70;;
64826;SDS011;51265;53.972;12.286;2023-03-09T06:29:35;11.60;;;5.72;;
64826;SDS011;51265;53.972;12.286;2023-03-09T06:32:02;13.27;;;6.28;;
64826;SDS011;51265;53.972;12.286;2023-03-09T06:34:32;14.60;;;6.65;;
64826;SDS011;51265;53.972;12.286;2023-03-09T06:37:02;13.05;;;6.55;;
64826;SDS011;51265;53.972;12.286;2023-03-09T06:39:28;13.95;;;6.75;;
64826;SDS011;51265;53.972;12.286;2023-03-09T06:41:56;12.07;;;6.57;;
64826;SDS011;51265;53.972;12.286;2023-03-09T06:44:29;12.65;;;7.15;;
64826;SDS011;51265;53.972;12.286;2023-03-09T06:46:58;11.27;;;5.70;;
64826;SDS011;51265;53.972;12.286;2023-03-09T06:49:25;13.65;;;6.35;;
64826;SDS011;51265;53.972;12.286;2023-03-09T06:51:53;11.35;;;6.32;;
64826;SDS011;51265;53.972;12.286;2023-03-09T06:54:19;12.60;;;6.53;;
64826;SDS011;51265;53.972;12.286;2023-03-09T06:56:56;12.60;;;6.53;;
64826;SDS011;51265;53.972;12.286;2023-03-09T06:59:23;18.90;;;7.15;;
64826;SDS011;51265;53.972;12.286;2023-03-09T07:01:49;14.27;;;6.25;;
64826;SDS011;51265;53.972;12.286;2023-03-09T07:04:15;16.38;;;6.20;;
64826;SDS011;51265;53.972;12.286;2023-03-09T07:06:43;10.05;;;6.00;;
64826;SDS011;51265;53.972;12.286;2023-03-09T07:09:09;12.10;;;6.82;;
64826;SDS011;51265;53.972;12.286;2023-03-09T07:11:35;12.02;;;6.15;;
64826;SDS011;51265;53.972;12.286;2023-03-09T07:14:01;18.33;;;9.27;;
64826;SDS011;51265;53.972;12.286;2023-03-09T07:16:27;53.05;;;26.45;;
64826;SDS011;51265;53.972;12.286;2023-03-09T07:18:56;66.70;;;32.85;;
64826;SDS011;51265;53.972;12.286;2023-03-09T07:21:22;36.53;;;17.08;;
64826;SDS011;51265;53.972;12.286;2023-03-09T07:23:48;19.75;;;9.23;;
64826;SDS011;51265;53.972;12.286;2023-03-09T07:26:14;15.82;;;7.88;;
64826;SDS011;51265;53.972;12.286;2023-03-09T07:28:41;13.43;;;6.90;;
64826;SDS011;51265;53.972;12.286;2023-03-09T07:31:10;14.80;;;6.68;;
64826;SDS011;51265;53.972;12.286;2023-03-09T07:33:38;13.38;;;6.50;;
64826;SDS011;51265;53.972;12.286;2023-03-09T07:36:05;14.43;;;7.00;;
64826;SDS011;51265;53.972;12.286;2023-03-09T07:38:32;13.55;;;6.90;;
64826;SDS011;51265;53.972;12.286;2023-03-09T07:40:59;15.77;;;6.90;;
64826;SDS011;51265;53.972;12.286;2023-03-09T07:43:26;18.10;;;6.78;;
64826;SDS011;51265;53.972;12.286;2023-03-09T07:46:04;12.68;;;6.90;;
64826;SDS011;51265;53.972;12.286;2023-03-09T07:48:32;12.45;;;6.55;;
64826;SDS011;51265;53.972;12.286;2023-03-09T07:50:58;11.85;;;6.50;;
64826;SDS011;51265;53.972;12.286;2023-03-09T07:53:26;13.93;;;7.15;;
64826;SDS011;51265;53.972;12.286;2023-03-09T07:55:55;13.80;;;7.00;;
64826;SDS011;51265;53.972;12.286;2023-03-09T07:58:22;13.15;;;6.43;;
64826;SDS011;51265;53.972;12.286;2023-03-09T08:00:49;15.60;;;7.03;;
64826;SDS011;51265;53.972;12.286;2023-03-09T08:03:15;12.48;;;6.78;;
64826;SDS011;51265;53.972;12.286;2023-03-09T08:05:41;11.98;;;6.18;;
64826;SDS011;51265;53.972;12.286;2023-03-09T08:08:07;20.27;;;10.50;;
64826;SDS011;51265;53.972;12.286;2023-03-09T08:10:34;46.22;;;24.55;;
64826;SDS011;51265;53.972;12.286;2023-03-09T08:13:00;15.88;;;8.13;;
64826;SDS011;51265;53.972;12.286;2023-03-09T08:15:26;12.38;;;6.78;;
64826;SDS011;51265;53.972;12.286;2023-03-09T08:17:52;13.75;;;6.95;;
64826;SDS011;51265;53.972;12.286;2023-03-09T08:20:19;13.45;;;6.30;;
64826;SDS011;51265;53.972;12.286;2023-03-09T08:22:45;17.35;;;6.22;;
64826;SDS011;51265;53.972;12.286;2023-03-09T08:25:13;12.02;;;6.15;;
64826;SDS011;51265;53.972;12.286;2023-03-09T08:27:44;14.20;;;5.93;;
64826;SDS011;51265;53.972;12.286;2023-03-09T08:30:12;13.98;;;5.90;;
64826;SDS011;51265;53.972;12.286;2023-03-09T08:32:40;15.65;;;6.35;;
64826;SDS011;51265;53.972;12.286;2023-03-09T08:35:06;13.50;;;6.00;;
64826;SDS011;51265;53.972;12.286;2023-03-09T08:37:33;10.05;;;5.78;;
64826;SDS011;51265;53.972;12.286;2023-03-09T08:39:59;13.00;;;6.20;;
64826;SDS011;51265;53.972;12.286;2023-03-09T08:42:26;12.15;;;6.28;;
64826;SDS011;51265;53.972;12.286;2023-03-09T08:44:52;8.95;;;5.97;;
64826;SDS011;51265;53.972;12.286;2023-03-09T08:47:18;8.10;;;5.30;;
64826;SDS011;51265;53.972;12.286;2023-03-09T08:49:46;12.75;;;5.55;;
64826;SDS011;51265;53.972;12.286;2023-03-09T08:52:13;13.43;;;5.65;;
64826;SDS011;51265;53.972;12.286;2023-03-09T08:54:39;11.27;;;5.55;;
64826;SDS011;51265;53.972;12.286;2023-03-09T08:57:05;11.32;;;5.88;;
64826;SDS011;51265;53.972;12.286;2023-03-09T08:59:32;9.00;;;5.22;;
64826;SDS011;51265;53.972;12.286;2023-03-09T09:01:58;12.55;;;5.43;;
64826;SDS011;51265;53.972;12.286;2023-03-09T09:04:25;11.50;;;5.80;;
64826;SDS011;51265;53.972;12.286;2023-03-09T09:06:52;10.43;;;5.53;;
64826;SDS011;51265;53.972;12.286;2023-03-09T09:09:18;10.73;;;5.55;;
64826;SDS011;51265;53.972;12.286;2023-03-09T09:11:45;10.60;;;5.50;;
64826;SDS011;51265;53.972;12.286;2023-03-09T09:14:12;12.02;;;6.90;;
64826;SDS011;51265;53.972;12.286;2023-03-09T09:16:38;32.88;;;17.92;;
64826;SDS011;51265;53.972;12.286;2023-03-09T09:19:04;29.35;;;14.20;;
64826;SDS011;51265;53.972;12.286;2023-03-09T09:21:31;13.18;;;6.63;;
64826;SDS011;51265;53.972;12.286;2023-03-09T09:23:58;9.20;;;5.25;;
64826;SDS011;51265;53.972;12.286;2023-03-09T09:26:25;11.63;;;5.78;;
64826;SDS011;51265;53.972;12.286;2023-03-09T09:28:51;9.05;;;5.05;;
64826;SDS011;51265;53.972;12.286;2023-03-09T09:31:18;10.20;;;5.57;;
64826;SDS011;51265;53.972;12.286;2023-03-09T09:33:52;12.57;;;5.03;;
64826;SDS011;51265;53.972;12.286;2023-03-09T09:36:18;8.07;;;4.88;;
64826;SDS011;51265;53.972;12.286;2023-03-09T09:38:45;7.53;;;4.82;;
64826;SDS011;51265;53.972;12.286;2023-03-09T09:43:58;8.15;;;5.05;;
64826;SDS011;51265;53.972;12.286;2023-03-09T09:46:28;10.65;;;4.80;;
64826;SDS011;51265;53.972;12.286;2023-03-09T09:48:55;8.98;;;5.03;;
64826;SDS011;51265;53.972;12.286;2023-03-09T09:51:39;13.38;;;4.10;;
64826;SDS011;51265;53.972;12.286;2023-03-09T09:57:03;9.70;;;4.25;;
64826;SDS011;51265;53.972;12.286;2023-03-09T09:59:42;10.10;;;4.88;;
64826;SDS011;51265;53.972;12.286;2023-03-09T10:02:26;7.20;;;4.40;;
64826;SDS011;51265;53.972;12.286;2023-03-09T10:07:42;13.63;;;5.10;;
64826;SDS011;51265;53.972;12.286;2023-03-09T10:10:30;8.88;;;4.43;;
64826;SDS011;51265;53.972;12.286;2023-03-09T10:12:57;8.48;;;4.43;;
64826;SDS011;51265;53.972;12.286;2023-03-09T10:15:30;6.90;;;3.75;;
64826;SDS011;51265;53.972;12.286;2023-03-09T10:18:01;8.45;;;4.63;;
64826;SDS011;51265;53.972;12.286;2023-03-09T10:20:33;7.70;;;4.32;;
64826;SDS011;51265;53.972;12.286;2023-03-09T10:23:23;9.55;;;4.63;;
64826;SDS011;51265;53.972;12.286;2023-03-09T10:26:01;9.50;;;4.68;;
64826;SDS011;51265;53.972;12.286;2023-03-09T10:28:44;9.05;;;4.47;;
64826;SDS011;51265;53.972;12.286;2023-03-09T10:31:18;12.18;;;5.22;;
64826;SDS011;51265;53.972;12.286;2023-03-09T10:36:45;8.48;;;4.25;;
64826;SDS011;51265;53.972;12.286;2023-03-09T10:39:23;7.43;;;4.43;;
64826;SDS011;51265;53.972;12.286;2023-03-09T10:41:51;8.65;;;4.35;;
64826;SDS011;51265;53.972;12.286;2023-03-09T10:44:21;8.38;;;4.22;;
64826;SDS011;51265;53.972;12.286;2023-03-09T10:46:58;10.25;;;4.93;;
64826;SDS011;51265;53.972;12.286;2023-03-09T10:49:27;11.85;;;4.90;;
64826;SDS011;51265;53.972;12.286;2023-03-09T10:51:54;9.77;;;4.45;;
64826;SDS011;51265;53.972;12.286;2023-03-09T10:54:26;7.70;;;4.78;;
64826;SDS011;51265;53.972;12.286;2023-03-09T10:56:56;15.65;;;5.32;;
64826;SDS011;51265;53.972;12.286;2023-03-09T10:59:23;9.27;;;4.25;;
64826;SDS011;51265;53.972;12.286;2023-03-09T11:01:52;6.93;;;4.35;;
64826;SDS011;51265;53.972;12.286;2023-03-09T11:04:29;7.90;;;4.30;;
64826;SDS011;51265;53.972;12.286;2023-03-09T11:07:03;6.82;;;4.47;;
64826;SDS011;51265;53.972;12.286;2023-03-09T11:09:31;6.30;;;3.90;;
64826;SDS011;51265;53.972;12.286;2023-03-09T11:17:26;7.25;;;3.90;;
64826;SDS011;51265;53.972;12.286;2023-03-09T11:22:45;6.97;;;4.40;;
64826;SDS011;51265;53.972;12.286;2023-03-09T11:25:21;11.35;;;4.18;;
64826;SDS011;51265;53.972;12.286;2023-03-09T11:27:59;8.20;;;4.40;;
64826;SDS011;51265;53.972;12.286;2023-03-09T11:30:31;6.68;;;4.47;;
64826;SDS011;51265;53.972;12.286;2023-03-09T11:32:58;10.45;;;4.85;;
64826;SDS011;51265;53.972;12.286;2023-03-09T11:35:24;8.38;;;4.05;;
64826;SDS011;51265;53.972;12.286;2023-03-09T11:37:54;10.02;;;5.43;;
64826;SDS011;51265;53.972;12.286;2023-03-09T11:40:27;11.10;;;5.00;;
64826;SDS011;51265;53.972;12.286;2023-03-09T11:45:30;8.63;;;4.20;;
64826;SDS011;51265;53.972;12.286;2023-03-09T11:48:03;9.00;;;4.47;;
64826;SDS011;51265;53.972;12.286;2023-03-09T11:50:38;9.32;;;4.85;;
64826;SDS011;51265;53.972;12.286;2023-03-09T11:53:13;8.10;;;4.88;;
64826;SDS011;51265;53.972;12.286;2023-03-09T11:55:49;7.65;;;4.55;;
64826;SDS011;51265;53.972;12.286;2023-03-09T11:58:21;6.63;;;3.80;;
64826;SDS011;51265;53.972;12.286;2023-03-09T12:01:04;8.68;;;4.47;;
64826;SDS011;51265;53.972;12.286;2023-03-09T12:03:50;7.50;;;4.25;;
64826;SDS011;51265;53.972;12.286;2023-03-09T12:06:32;8.63;;;4.32;;
64826;SDS011;51265;53.972;12.286;2023-03-09T12:09:05;12.63;;;4.90;;
64826;SDS011;51265;53.972;12.286;2023-03-09T12:14:09;7.85;;;4.80;;
64826;SDS011;51265;53.972;12.286;2023-03-09T12:16:42;9.65;;;4.78;;
64826;SDS011;51265;53.972;12.286;2023-03-09T12:19:13;8.65;;;4.85;;
64826;SDS011;51265;53.972;12.286;2023-03-09T12:21:44;7.88;;;4.90;;
64826;SDS011;51265;53.972;12.286;2023-03-09T12:27:01;7.43;;;4.95;;
64826;SDS011;51265;53.972;12.286;2023-03-09T12:29:41;9.35;;;5.05;;
64826;SDS011;51265;53.972;12.286;2023-03-09T12:34:59;8.70;;;5.25;;
64826;SDS011;51265;53.972;12.286;2023-03-09T12:40:18;8.75;;;4.95;;
64826;SDS011;51265;53.972;12.286;2023-03-09T12:45:45;8.45;;;5.10;;
64826;SDS011;51265;53.972;12.286;2023-03-09T12:48:22;8.88;;;5.45;;
64826;SDS011;51265;53.972;12.286;2023-03-09T12:53:34;10.33;;;5.47;;
64826;SDS011;51265;53.972;12.286;2023-03-09T12:56:24;10.07;;;5.80;;
64826;SDS011;51265;53.972;12.286;2023-03-09T12:58:52;9.65;;;5.65;;
64826;SDS011;51265;53.972;12.286;2023-03-09T13:03:47;11.10;;;5.63;;
64826;SDS011;51265;53.972;12.286;2023-03-09T13:11:38;10.70;;;5.82;;
64826;SDS011;51265;53.972;12.286;2023-03-09T13:14:14;10.77;;;5.70;;
64826;SDS011;51265;53.972;12.286;2023-03-09T13:29:37;9.73;;;5.73;;
64826;SDS011;51265;53.972;12.286;2023-03-09T13:32:05;10.80;;;6.22;;
64826;SDS011;51265;53.972;12.286;2023-03-09T13:34:44;12.23;;;5.95;;
64826;SDS011;51265;53.972;12.286;2023-03-09T13:37:15;10.30;;;5.88;;
64826;SDS011;51265;53.972;12.286;2023-03-09T13:39:57;10.98;;;6.00;;
64826;SDS011;51265;53.972;12.286;2023-03-09T13:42:25;10.23;;;6.07;;
64826;SDS011;51265;53.972;12.286;2023-03-09T13:44:54;9.13;;;5.47;;
64826;SDS011;51265;53.972;12.286;2023-03-09T13:47:24;10.05;;;6.28;;
64826;SDS011;51265;53.972;12.286;2023-03-09T13:49:53;8.50;;;5.82;;
64826;SDS011;51265;53.972;12.286;2023-03-09T13:52:20;9.73;;;5.75;;
64826;SDS011;51265;53.972;12.286;2023-03-09T13:54:49;10.07;;;5.68;;
64826;SDS011;51265;53.972;12.286;2023-03-09T13:57:18;10.88;;;5.95;;
64826;SDS011;51265;53.972;12.286;2023-03-09T13:59:53;9.52;;;6.10;;
64826;SDS011;51265;53.972;12.286;2023-03-09T14:02:23;9.15;;;6.00;;
64826;SDS011;51265;53.972;12.286;2023-03-09T14:07:24;11.63;;;6.30;;
64826;SDS011;51265;53.972;12.286;2023-03-09T14:09:56;12.07;;;6.18;;
64826;SDS011;51265;53.972;12.286;2023-03-09T14:12:32;11.38;;;6.97;;
64826;SDS011;51265;53.972;12.286;2023-03-09T14:15:03;12.07;;;6.82;;
64826;SDS011;51265;53.972;12.286;2023-03-09T14:17:32;11.07;;;6.60;;
64826;SDS011;51265;53.972;12.286;2023-03-09T14:20:00;11.82;;;6.32;;
64826;SDS011;51265;53.972;12.286;2023-03-09T14:22:28;12.05;;;6.60;;
64826;SDS011;51265;53.972;12.286;2023-03-09T14:24:57;9.98;;;6.78;;
64826;SDS011;51265;53.972;12.286;2023-03-09T14:27:32;8.65;;;5.72;;
64826;SDS011;51265;53.972;12.286;2023-03-09T14:32:56;12.25;;;6.93;;
64826;SDS011;51265;53.972;12.286;2023-03-09T14:35:31;12.45;;;7.20;;
64826;SDS011;51265;53.972;12.286;2023-03-09T14:37:59;10.48;;;6.60;;
64826;SDS011;51265;53.972;12.286;2023-03-09T14:40:26;13.40;;;7.28;;
64826;SDS011;51265;53.972;12.286;2023-03-09T14:43:18;11.10;;;6.82;;
64826;SDS011;51265;53.972;12.286;2023-03-09T14:45:50;13.80;;;7.18;;
64826;SDS011;51265;53.972;12.286;2023-03-09T14:48:17;11.93;;;6.95;;
64826;SDS011;51265;53.972;12.286;2023-03-09T14:50:44;12.40;;;7.70;;
64826;SDS011;51265;53.972;12.286;2023-03-09T14:53:14;13.18;;;7.03;;
64826;SDS011;51265;53.972;12.286;2023-03-09T14:55:41;11.38;;;7.22;;
64826;SDS011;51265;53.972;12.286;2023-03-09T14:58:11;12.73;;;7.15;;
64826;SDS011;51265;53.972;12.286;2023-03-09T15:00:39;12.65;;;7.53;;
64826;SDS011;51265;53.972;12.286;2023-03-09T15:03:07;13.00;;;8.07;;
64826;SDS011;51265;53.972;12.286;2023-03-09T15:05:33;11.02;;;7.30;;
64826;SDS011;51265;53.972;12.286;2023-03-09T15:08:00;15.65;;;7.75;;
64826;SDS011;51265;53.972;12.286;2023-03-09T15:10:26;13.55;;;7.30;;
64826;SDS011;51265;53.972;12.286;2023-03-09T15:12:52;13.85;;;7.72;;
64826;SDS011;51265;53.972;12.286;2023-03-09T15:15:21;17.63;;;7.88;;
64826;SDS011;51265;53.972;12.286;2023-03-09T15:17:49;13.27;;;7.03;;
64826;SDS011;51265;53.972;12.286;2023-03-09T15:20:17;13.90;;;7.60;;
64826;SDS011;51265;53.972;12.286;2023-03-09T15:22:46;13.88;;;7.38;;
64826;SDS011;51265;53.972;12.286;2023-03-09T15:25:13;14.45;;;7.93;;
64826;SDS011;51265;53.972;12.286;2023-03-09T15:27:41;11.65;;;6.80;;
64826;SDS011;51265;53.972;12.286;2023-03-09T15:30:11;12.45;;;7.13;;
64826;SDS011;51265;53.972;12.286;2023-03-09T15:32:39;12.95;;;7.20;;
64826;SDS011;51265;53.972;12.286;2023-03-09T15:35:06;11.88;;;6.80;;
64826;SDS011;51265;53.972;12.286;2023-03-09T15:37:33;12.43;;;6.53;;
64826;SDS011;51265;53.972;12.286;2023-03-09T15:39:59;12.60;;;6.60;;
64826;SDS011;51265;53.972;12.286;2023-03-09T15:42:26;12.10;;;6.82;;
64826;SDS011;51265;53.972;12.286;2023-03-09T15:44:52;18.02;;;8.00;;
64826;SDS011;51265;53.972;12.286;2023-03-09T15:47:18;12.32;;;7.30;;